Walled Lake, Michigan
Current Conditions -  °F | °C
As of 3:53 PM on Thursday 20 Nov 2014 (Local Time) from KPTK Reporting Station
Light Snow Light Snow  
Wind Chill:   Ceiling: 2500
Heat Index: 22°   Visibility: 5mi
Dew Point: 15°   Wind: 14mph
Humidity: 75%   Direction: 260°W
Pressure: 29.91"   Gusts: 24mph
Location:  42.54°N, 83.47°W
Report Text: KPTK 202053Z 26012G21KT 5SM -SN BLSN FEW009 FEW014 BKN025 M06/M09 A2991 RMK AO2 PK WND 28026/1958 SLP144 P0000 60000 T10561094 53018
Loading
Personal Weather Stations






























Interactive Weather Map New forecast layout! Learn more

10-Day Weather Forecast

Advertisements
Track Severe Weather on mobile